createdAt,value
2022-11-07T00:03:00.552Z,99811.69
2022-11-07T00:07:04.222Z,99810.84
2022-11-07T00:11:08.303Z,99813.53
2022-11-07T00:15:13.290Z,99813.47
2022-11-07T00:19:20.682Z,99827.41
2022-11-07T00:23:23.744Z,99825.59
2022-11-07T00:27:26.802Z,99831.63
2022-11-07T00:31:31.352Z,99839.41
2022-11-07T00:35:34.837Z,99836.72
2022-11-07T00:39:37.858Z,99846.22
2022-11-07T00:43:40.982Z,99848.81
2022-11-07T00:47:45.336Z,99849.59
2022-11-07T00:51:48.364Z,99859.16
2022-11-07T00:55:51.390Z,99857.38
2022-11-07T00:59:54.394Z,99853.84
2022-11-07T01:04:16.618Z,99851.09
2022-11-07T01:08:19.889Z,99855.41
2022-11-07T01:12:22.947Z,99845.78
2022-11-07T01:16:26.254Z,99857.94
2022-11-07T01:20:30.956Z,99878.84
2022-11-07T01:24:33.970Z,99877.06
2022-11-07T01:28:38.736Z,99875.22
2022-11-07T01:32:41.793Z,99869.91
2022-11-07T01:36:46.651Z,99863.78
2022-11-07T01:41:07.228Z,99854.06
2022-11-07T01:45:19.812Z,99852.34
2022-11-07T01:49:26.121Z,99854.00
2022-11-07T01:53:30.625Z,99862.66
2022-11-07T01:57:38.260Z,99865.16
2022-11-07T02:01:42.121Z,99863.31
2022-11-07T02:05:49.562Z,99861.50
2022-11-07T02:09:55.434Z,99858.88
2022-11-07T02:13:58.443Z,99853.56
2022-11-07T02:18:02.660Z,99859.66
2022-11-07T02:22:15.231Z,99868.34
2022-11-07T02:26:20.616Z,99890.19
2022-11-07T02:30:27.223Z,99893.69
2022-11-07T02:34:30.867Z,99884.97
2022-11-07T02:38:37.637Z,99880.56
2022-11-07T02:42:44.783Z,99884.81
2022-11-07T02:46:48.169Z,99888.31
2022-11-07T02:50:51.131Z,99891.75
2022-11-07T02:54:54.294Z,99891.81
2022-11-07T02:58:58.677Z,99904.91
2022-11-07T03:03:01.672Z,99905.75
2022-11-07T03:07:04.756Z,99914.44
2022-11-07T03:11:08.258Z,99913.56
2022-11-07T03:15:14.217Z,99925.72
2022-11-07T03:19:17.635Z,99927.44
2022-11-07T03:23:20.826Z,99917.91
2022-11-07T03:27:23.884Z,99911.88
2022-11-07T03:31:28.415Z,99928.50
2022-11-07T03:35:31.408Z,99932.91
2022-11-07T03:39:34.496Z,99933.81
2022-11-07T03:43:37.494Z,99943.44
2022-11-07T03:47:43.979Z,99949.63
2022-11-07T03:51:47.038Z,99953.16
2022-11-07T03:55:50.332Z,99959.31
2022-11-07T03:59:53.342Z,99967.22
2022-11-07T04:03:57.785Z,99976.91
2022-11-07T04:08:00.983Z,99977.03
2022-11-07T04:12:21.516Z,99972.78
2022-11-07T04:16:41.840Z,99978.88
2022-11-07T04:20:46.417Z,99983.25
2022-11-07T04:24:50.311Z,99987.66
2022-11-07T04:28:53.794Z,99989.44
2022-11-07T04:33:00.262Z,99980.81
2022-11-07T04:37:04.947Z,99991.34
2022-11-07T04:41:07.993Z,99995.81
2022-11-07T04:45:12.410Z,100002.00
2022-11-07T04:49:15.988Z,100004.69
2022-11-07T04:53:20.405Z,100017.00
2022-11-07T04:57:23.909Z,100013.59
2022-11-07T05:01:26.952Z,100014.63
2022-11-07T05:05:30.428Z,100009.41
2022-11-07T05:09:35.443Z,100011.31
2022-11-07T05:13:38.478Z,100012.34
2022-11-07T05:17:41.641Z,100014.28
2022-11-07T05:21:45.060Z,100026.66
2022-11-07T05:25:50.802Z,100029.38
2022-11-07T05:29:54.038Z,100025.97
2022-11-07T05:33:57.278Z,100033.88
2022-11-07T05:38:00.304Z,100033.06
2022-11-07T05:42:05.427Z,100047.13
2022-11-07T05:46:09.153Z,100042.84
2022-11-07T05:50:12.398Z,100049.00
2022-11-07T05:54:15.415Z,100049.06
2022-11-07T05:58:20.510Z,100053.47
2022-11-07T06:02:23.706Z,100057.06
2022-11-07T06:06:26.836Z,100056.31
2022-11-07T06:10:29.817Z,100072.06
2022-11-07T06:14:34.161Z,100070.34
2022-11-07T06:18:41.535Z,100077.31
2022-11-07T06:22:44.937Z,100092.09
2022-11-07T06:26:47.844Z,100094.66
2022-11-07T06:30:52.205Z,100099.91
2022-11-07T06:34:55.337Z,100106.84
2022-11-07T06:38:58.383Z,100102.44
2022-11-07T06:43:11.677Z,100113.72
2022-11-07T06:47:15.974Z,100119.91
2022-11-07T06:51:18.975Z,100119.94
2022-11-07T06:55:22.033Z,100127.75
2022-11-07T06:59:24.962Z,100130.44
2022-11-07T07:03:29.405Z,100127.06
2022-11-07T07:07:32.295Z,100132.44
2022-11-07T07:11:37.675Z,100137.75
2022-11-07T07:15:51.327Z,100142.19
2022-11-07T07:19:55.882Z,100139.59
2022-11-07T07:23:58.779Z,100131.72
2022-11-07T07:28:01.887Z,100134.34
2022-11-07T07:32:04.815Z,100147.41
2022-11-07T07:36:10.473Z,100153.56
2022-11-07T07:40:13.759Z,100155.38
2022-11-07T07:44:16.784Z,100164.28
2022-11-07T07:48:19.823Z,100156.53
2022-11-07T07:52:24.129Z,100152.25
2022-11-07T07:56:27.277Z,100152.34
2022-11-07T08:00:30.148Z,100156.91
2022-11-07T08:04:33.290Z,100159.59
2022-11-07T08:08:38.484Z,100169.34
2022-11-07T08:12:44.890Z,100180.81
2022-11-07T08:16:47.840Z,100173.03
2022-11-07T08:20:51.378Z,100165.25
2022-11-07T08:24:55.866Z,100161.78
2022-11-07T08:28:58.779Z,100161.84
2022-11-07T08:33:03.161Z,100162.81
2022-11-07T08:37:06.128Z,100160.25
2022-11-07T08:41:10.458Z,100167.25
2022-11-07T08:45:13.464Z,100175.22
2022-11-07T08:49:16.619Z,100191.06
2022-11-07T08:53:20.128Z,100183.34
2022-11-07T08:57:24.578Z,100190.41
2022-11-07T09:01:27.578Z,100194.03
2022-11-07T09:05:30.743Z,100196.72
2022-11-07T09:09:34.017Z,100199.41
2022-11-07T09:13:38.716Z,100203.84
2022-11-07T09:17:41.930Z,100203.88
2022-11-07T09:21:45.842Z,100197.81
2022-11-07T09:25:48.723Z,100194.41
2022-11-07T09:29:53.053Z,100197.13
2022-11-07T09:33:55.993Z,100212.09
2022-11-07T09:37:58.878Z,100206.03
2022-11-07T09:42:06.995Z,100201.66
2022-11-07T09:46:23.745Z,100203.50
2022-11-07T09:50:32.519Z,100193.13
2022-11-07T09:54:39.759Z,100198.56
2022-11-07T09:58:44.619Z,100192.59
2022-11-07T10:02:51.642Z,100192.75
2022-11-07T10:06:59.549Z,100195.53
2022-11-07T10:11:09.875Z,100181.66
2022-11-07T10:15:20.961Z,100183.53
2022-11-07T10:19:43.582Z,100165.19
2022-11-07T10:24:02.603Z,100167.03
2022-11-07T10:28:17.200Z,100175.94
2022-11-07T10:32:25.054Z,100168.13
2022-11-07T10:36:31.250Z,100164.72
2022-11-07T10:40:38.534Z,100156.88
2022-11-07T10:44:43.794Z,100160.47
2022-11-07T10:48:57.542Z,100157.03
2022-11-07T10:53:05.616Z,100147.44
2022-11-07T10:57:13.873Z,100146.59
2022-11-07T11:01:25.659Z,100136.06
2022-11-07T11:05:33.850Z,100136.94
2022-11-07T11:09:38.414Z,100134.31
2022-11-07T11:13:41.687Z,100124.66
2022-11-07T11:17:46.439Z,100122.03
2022-11-07T11:21:51.883Z,100115.88
2022-11-07T11:26:02.746Z,100120.25
2022-11-07T11:30:09.096Z,100121.16
2022-11-07T11:34:18.437Z,100114.97
2022-11-07T11:38:25.366Z,100107.94
2022-11-07T11:42:37.955Z,100113.19
2022-11-07T11:46:48.018Z,100113.19
2022-11-07T11:50:54.507Z,100107.84
2022-11-07T11:54:59.011Z,100111.38
2022-11-07T11:59:23.837Z,100101.59
2022-11-07T12:03:48.282Z,100099.81
2022-11-07T12:08:02.039Z,100089.19
2022-11-07T12:12:16.595Z,100086.50
2022-11-07T12:16:31.512Z,100084.72
2022-11-07T12:20:45.023Z,100081.16
2022-11-07T12:24:56.660Z,100085.53
2022-11-07T12:29:09.530Z,100082.03
2022-11-07T12:33:25.267Z,100075.00
2022-11-07T12:37:51.477Z,100084.66
2022-11-07T12:41:59.341Z,100073.16
2022-11-07T12:46:12.009Z,100074.00
2022-11-07T12:50:28.199Z,100060.75
2022-11-07T12:54:42.601Z,100065.13
2022-11-07T12:58:48.428Z,100067.75
2022-11-07T13:03:02.178Z,100060.69
2022-11-07T13:07:19.144Z,100058.94
2022-11-07T13:11:28.962Z,100051.81
2022-11-07T13:15:53.896Z,100054.44
2022-11-07T13:20:01.060Z,100053.53
2022-11-07T13:24:08.482Z,100050.00
2022-11-07T13:28:36.402Z,100044.69
2022-11-07T13:32:40.362Z,100049.09
2022-11-07T13:36:43.434Z,100047.31
2022-11-07T13:40:49.811Z,100049.09
2022-11-07T13:44:56.150Z,100048.19
2022-11-07T13:49:03.475Z,100049.94
2022-11-07T13:53:17.253Z,100048.19
2022-11-07T13:57:28.372Z,100053.47
2022-11-07T14:01:42.501Z,100050.84
2022-11-07T14:05:49.212Z,100050.84
2022-11-07T14:09:57.195Z,100049.97
2022-11-07T14:14:01.850Z,100050.00
2022-11-07T14:18:05.920Z,100051.75
2022-11-07T14:22:22.351Z,100048.25
2022-11-07T14:26:28.284Z,100060.59
2022-11-07T14:30:32.956Z,100059.75
2022-11-07T14:34:36.908Z,100059.72
2022-11-07T14:38:47.536Z,100058.84
2022-11-07T14:42:52.482Z,100060.66
2022-11-07T14:46:59.039Z,100071.25
2022-11-07T14:51:03.627Z,100065.09
2022-11-07T14:55:13.927Z,100058.94
2022-11-07T14:59:18.742Z,100065.19
2022-11-07T15:03:24.339Z,100058.13
2022-11-07T15:07:29.360Z,100059.06
2022-11-07T15:11:34.578Z,100059.97
2022-11-07T15:15:38.472Z,100060.00
2022-11-07T15:19:42.917Z,100062.69
2022-11-07T15:23:45.935Z,100062.72
2022-11-07T15:27:49.068Z,100061.84
2022-11-07T15:31:52.132Z,100067.16
2022-11-07T15:35:58.615Z,100064.56
2022-11-07T15:40:01.669Z,100057.50
2022-11-07T15:44:05.350Z,100057.56
2022-11-07T15:48:09.685Z,100057.56
2022-11-07T15:52:14.158Z,100062.84
2022-11-07T15:56:21.348Z,100073.47
2022-11-07T16:00:26.144Z,100079.63
2022-11-07T16:04:29.504Z,100080.53
2022-11-07T16:08:35.763Z,100084.06
2022-11-07T16:12:38.832Z,100081.47
2022-11-07T16:16:43.580Z,100085.88
2022-11-07T16:20:47.128Z,100081.47
2022-11-07T16:24:51.631Z,100094.72
2022-11-07T16:28:54.715Z,100090.28
2022-11-07T16:32:57.754Z,100091.16
2022-11-07T16:37:01.135Z,100095.56
2022-11-07T16:41:05.889Z,100099.13
2022-11-07T16:45:09.795Z,100091.19
2022-11-07T16:49:22.775Z,100091.22
2022-11-07T16:53:26.907Z,100095.63
2022-11-07T16:57:35.648Z,100100.91
2022-11-07T17:01:39.897Z,100101.78
2022-11-07T17:05:43.489Z,100106.19
2022-11-07T17:09:46.600Z,100105.31
2022-11-07T17:13:51.131Z,100097.38
2022-11-07T17:17:58.788Z,100101.78
2022-11-07T17:22:03.469Z,100107.94
2022-11-07T17:26:07.165Z,100111.44
2022-11-07T17:30:18.179Z,100106.16
2022-11-07T17:34:21.504Z,100110.53
2022-11-07T17:38:25.741Z,100110.53
2022-11-07T17:42:30.677Z,100108.75
2022-11-07T17:46:43.231Z,100107.84
2022-11-07T17:50:46.362Z,100112.22
2022-11-07T17:54:50.199Z,100110.44
2022-11-07T17:58:55.307Z,100113.94
2022-11-07T18:02:59.944Z,100114.78
2022-11-07T18:07:03.457Z,100101.56
2022-11-07T18:11:07.743Z,100116.47
2022-11-07T18:15:17.134Z,100113.78
2022-11-07T18:19:21.637Z,100113.75
2022-11-07T18:23:25.420Z,100106.69
2022-11-07T18:27:28.456Z,100104.91
2022-11-07T18:31:31.909Z,100100.47
2022-11-07T18:35:36.315Z,100098.72
2022-11-07T18:39:39.866Z,100101.28
2022-11-07T18:43:42.933Z,100110.00
2022-11-07T18:47:46.057Z,100103.84
2022-11-07T18:51:50.500Z,100101.19
2022-11-07T18:55:58.571Z,100107.28
2022-11-07T19:00:01.628Z,100108.13
2022-11-07T19:04:07.552Z,100110.72
2022-11-07T19:08:12.033Z,100108.88
2022-11-07T19:12:15.288Z,100114.16
2022-11-07T19:16:19.740Z,100116.72
2022-11-07T19:20:23.061Z,100116.69
2022-11-07T19:24:27.509Z,100104.34
2022-11-07T19:28:30.775Z,100114.84
2022-11-07T19:32:33.782Z,100124.47
2022-11-07T19:36:37.155Z,100125.34
2022-11-07T19:40:41.979Z,100135.78
2022-11-07T19:44:50.463Z,100128.66
2022-11-07T19:48:56.774Z,100133.91
2022-11-07T19:53:00.019Z,100147.94
2022-11-07T19:57:04.552Z,100144.31
2022-11-07T20:01:12.349Z,100138.06
2022-11-07T20:05:23.993Z,100134.53
2022-11-07T20:09:27.187Z,100152.94
2022-11-07T20:13:31.718Z,100147.59
2022-11-07T20:17:34.845Z,100146.69
2022-11-07T20:21:38.609Z,100147.53
2022-11-07T20:25:42.227Z,100146.59
2022-11-07T20:29:46.639Z,100142.19
2022-11-07T20:33:50.013Z,100157.03
2022-11-07T20:37:53.236Z,100146.50
2022-11-07T20:41:56.314Z,100143.81
2022-11-07T20:46:06.534Z,100153.41
2022-11-07T20:50:10.042Z,100151.56
2022-11-07T20:54:13.747Z,100155.88
2022-11-07T20:58:17.068Z,100153.19
2022-11-07T21:02:21.543Z,100154.03
2022-11-07T21:06:24.820Z,100149.56
2022-11-07T21:10:28.028Z,100159.97
2022-11-07T21:14:31.115Z,100146.75
2022-11-07T21:18:35.885Z,100151.06
2022-11-07T21:22:39.058Z,100154.50
2022-11-07T21:26:43.314Z,100155.38
2022-11-07T21:30:54.530Z,100149.19
2022-11-07T21:34:58.983Z,100155.22
2022-11-07T21:39:03.472Z,100149.06
2022-11-07T21:43:06.831Z,100151.66
2022-11-07T21:47:09.898Z,100158.56
2022-11-07T21:51:16.728Z,100152.38
2022-11-07T21:55:20.136Z,100155.75
2022-11-07T21:59:23.394Z,100147.81
2022-11-07T22:03:51.144Z,100146.00
2022-11-07T22:07:51.482Z,100146.81
2022-11-07T22:11:54.712Z,100149.38
2022-11-07T22:16:04.087Z,100144.97
2022-11-07T22:20:08.440Z,100137.88
2022-11-07T22:24:12.958Z,100143.06
2022-11-07T22:28:15.983Z,100151.72
2022-11-07T22:32:19.021Z,100149.09
2022-11-07T22:36:22.462Z,100142.06
2022-11-07T22:40:26.984Z,100145.53
2022-11-07T22:44:30.494Z,100135.81
2022-11-07T22:48:34.397Z,100140.16
2022-11-07T22:52:37.654Z,100137.53
2022-11-07T22:56:42.357Z,100142.78
2022-11-07T23:00:45.414Z,100140.94
2022-11-07T23:04:48.450Z,100146.06
2022-11-07T23:08:52.305Z,100149.47
2022-11-07T23:12:56.739Z,100144.13
2022-11-07T23:16:59.835Z,100151.13
2022-11-07T23:21:12.177Z,100158.09
2022-11-07T23:25:15.434Z,100157.13
2022-11-07T23:29:22.944Z,100153.56
2022-11-07T23:33:26.159Z,100146.56
2022-11-07T23:37:29.285Z,100146.47
2022-11-07T23:41:32.381Z,100142.94
2022-11-07T23:45:54.222Z,100136.84
2022-11-07T23:50:14.707Z,100141.16
2022-11-07T23:54:35.197Z,100141.13
2022-11-07T23:58:55.425Z,100136.63
